createdAt,value
2022-12-18T00:01:06.994Z,-6.28
2022-12-18T00:03:34.676Z,-6.28
2022-12-18T00:06:01.916Z,-6.26
2022-12-18T00:08:29.584Z,-6.27
2022-12-18T00:10:59.845Z,-6.26
2022-12-18T00:13:28.222Z,-6.28
2022-12-18T00:15:56.718Z,-6.27
2022-12-18T00:18:23.613Z,-6.28
2022-12-18T00:20:50.505Z,-6.31
2022-12-18T00:23:17.333Z,-6.37
2022-12-18T00:25:44.400Z,-6.44
2022-12-18T00:28:11.125Z,-6.55
2022-12-18T00:30:37.973Z,-6.49
2022-12-18T00:33:05.016Z,-6.55
2022-12-18T00:35:32.917Z,-6.55
2022-12-18T00:37:59.756Z,-6.59
2022-12-18T00:40:26.562Z,-6.59
2022-12-18T00:42:59.186Z,-6.59
2022-12-18T00:45:31.403Z,-6.54
2022-12-18T00:47:58.216Z,-6.58
2022-12-18T00:50:25.902Z,-6.62
2022-12-18T00:52:52.699Z,-6.60
2022-12-18T00:55:19.993Z,-6.66
2022-12-18T00:57:46.761Z,-6.60
2022-12-18T01:00:15.103Z,-6.67
2022-12-18T01:02:42.383Z,-6.73
2022-12-18T01:05:10.204Z,-6.70
2022-12-18T01:07:36.964Z,-6.67
2022-12-18T01:10:04.537Z,-6.64
2022-12-18T01:12:31.327Z,-6.68
2022-12-18T01:14:58.142Z,-6.72
2022-12-18T01:17:25.247Z,-6.72
2022-12-18T01:19:52.035Z,-6.70
2022-12-18T01:22:18.892Z,-6.69
2022-12-18T01:24:45.848Z,-6.67
2022-12-18T01:27:12.711Z,-6.65
2022-12-18T01:29:39.473Z,-6.64
2022-12-18T01:32:06.339Z,-6.61
2022-12-18T01:34:33.178Z,-6.61
2022-12-18T01:37:00.050Z,-6.67
2022-12-18T01:39:26.957Z,-6.71
2022-12-18T01:42:02.835Z,-6.84
2022-12-18T01:44:48.154Z,-6.90
2022-12-18T01:47:21.577Z,-6.99
2022-12-18T01:49:48.566Z,-6.94
2022-12-18T01:52:15.782Z,-7.03
2022-12-18T01:54:42.628Z,-7.04
2022-12-18T01:57:09.541Z,-7.06
2022-12-18T01:59:36.607Z,-7.04
2022-12-18T02:02:03.795Z,-6.96
2022-12-18T02:04:30.958Z,-6.99
2022-12-18T02:07:00.468Z,-6.94
2022-12-18T02:09:33.066Z,-6.98
2022-12-18T02:12:00.183Z,-6.98
2022-12-18T02:14:30.121Z,-6.97
2022-12-18T02:17:02.939Z,-6.98
2022-12-18T02:19:48.330Z,-7.07
2022-12-18T02:22:26.155Z,-7.08
2022-12-18T02:25:02.163Z,-7.11
2022-12-18T02:27:31.504Z,-7.10
2022-12-18T02:30:00.489Z,-7.14
2022-12-18T02:32:29.667Z,-7.14
2022-12-18T02:34:57.305Z,-7.19
2022-12-18T02:37:24.795Z,-7.16
2022-12-18T02:39:52.424Z,-7.28
2022-12-18T02:42:19.950Z,-7.23
2022-12-18T02:44:48.668Z,-7.26
2022-12-18T02:47:17.231Z,-7.20
2022-12-18T02:49:53.093Z,-7.24
2022-12-18T02:52:35.059Z,-7.30
2022-12-18T02:55:07.780Z,-7.23
2022-12-18T02:57:37.100Z,-7.34
2022-12-18T03:00:07.282Z,-7.38
2022-12-18T03:02:49.384Z,-7.43
2022-12-18T03:05:29.072Z,-7.42
2022-12-18T03:08:02.119Z,-7.37
2022-12-18T03:10:31.814Z,-7.48
2022-12-18T03:13:07.370Z,-7.47
2022-12-18T03:15:40.684Z,-7.53
2022-12-18T03:18:10.076Z,-7.48
2022-12-18T03:20:37.974Z,-7.54
2022-12-18T03:23:12.253Z,-7.56
2022-12-18T03:25:41.364Z,-7.63
2022-12-18T03:28:11.334Z,-7.68
2022-12-18T03:30:39.877Z,-7.71
2022-12-18T03:33:09.562Z,-7.64
2022-12-18T03:35:38.861Z,-7.59
2022-12-18T03:38:05.777Z,-7.63
2022-12-18T03:40:54.637Z,-7.68
2022-12-18T03:43:28.001Z,-7.68
2022-12-18T03:45:58.028Z,-7.67
2022-12-18T03:48:30.450Z,-7.65
2022-12-18T03:50:58.327Z,-7.65
2022-12-18T03:53:25.167Z,-7.68
2022-12-18T03:55:52.786Z,-7.69
2022-12-18T03:58:22.252Z,-7.71
2022-12-18T04:00:51.344Z,-7.68
2022-12-18T04:03:22.669Z,-7.71
2022-12-18T04:05:55.428Z,-7.71
2022-12-18T04:08:22.766Z,-7.69
2022-12-18T04:10:49.530Z,-7.69
2022-12-18T04:13:23.381Z,-7.71
2022-12-18T04:15:50.208Z,-7.76
2022-12-18T04:18:17.169Z,-7.76
2022-12-18T04:20:43.933Z,-7.75
2022-12-18T04:23:10.817Z,-7.78
2022-12-18T04:25:37.664Z,-7.75
2022-12-18T04:28:04.528Z,-7.85
2022-12-18T04:30:31.455Z,-7.87
2022-12-18T04:32:58.261Z,-7.84
2022-12-18T04:35:25.077Z,-7.89
2022-12-18T04:37:51.852Z,-7.91
2022-12-18T04:40:18.699Z,-7.93
2022-12-18T04:42:45.525Z,-7.98
2022-12-18T04:45:12.425Z,-7.97
2022-12-18T04:47:39.190Z,-7.92
2022-12-18T04:50:06.277Z,-8.00
2022-12-18T04:52:33.580Z,-8.00
2022-12-18T04:55:00.411Z,-7.98
2022-12-18T04:57:27.553Z,-8.02
2022-12-18T04:59:54.318Z,-8.01
2022-12-18T05:02:21.337Z,-8.03
2022-12-18T05:04:48.458Z,-8.09
2022-12-18T05:07:15.532Z,-8.06
2022-12-18T05:09:42.298Z,-8.02
2022-12-18T05:12:09.393Z,-8.02
2022-12-18T05:14:36.138Z,-7.99
2022-12-18T05:17:03.608Z,-7.99
2022-12-18T05:19:30.501Z,-7.96
2022-12-18T05:21:58.449Z,-7.97
2022-12-18T05:24:25.301Z,-8.07
2022-12-18T05:26:52.144Z,-8.03
2022-12-18T05:29:18.983Z,-8.04
2022-12-18T05:31:45.799Z,-8.09
2022-12-18T05:34:12.953Z,-8.10
2022-12-18T05:36:39.874Z,-8.05
2022-12-18T05:39:07.205Z,-8.08
2022-12-18T05:41:34.071Z,-8.12
2022-12-18T05:44:01.424Z,-8.14
2022-12-18T05:46:28.337Z,-8.16
2022-12-18T05:48:55.318Z,-8.11
2022-12-18T05:51:23.393Z,-8.21
2022-12-18T05:53:50.343Z,-8.15
2022-12-18T05:56:19.223Z,-8.18
2022-12-18T05:58:46.198Z,-8.26
2022-12-18T06:01:14.744Z,-8.24
2022-12-18T06:03:42.286Z,-8.25
2022-12-18T06:06:23.637Z,-8.33
2022-12-18T06:08:51.160Z,-8.29
2022-12-18T06:11:19.597Z,-8.34
2022-12-18T06:13:47.374Z,-8.42
2022-12-18T06:16:14.275Z,-8.38
2022-12-18T06:18:41.132Z,-8.41
2022-12-18T06:21:08.045Z,-8.46
2022-12-18T06:23:34.920Z,-8.39
2022-12-18T06:26:09.162Z,-8.37
2022-12-18T06:28:36.071Z,-8.50
2022-12-18T06:31:04.227Z,-8.49
2022-12-18T06:33:31.630Z,-8.49
2022-12-18T06:36:09.178Z,-8.50
2022-12-18T06:38:37.916Z,-8.48
2022-12-18T06:41:08.890Z,-8.44
2022-12-18T06:43:35.718Z,-8.50
2022-12-18T06:46:03.417Z,-8.55
2022-12-18T06:48:30.263Z,-8.54
2022-12-18T06:50:57.481Z,-8.49
2022-12-18T06:53:24.271Z,-8.52
2022-12-18T06:55:51.380Z,-8.62
2022-12-18T06:58:18.266Z,-8.61
2022-12-18T07:00:45.492Z,-8.59
2022-12-18T07:03:12.720Z,-8.65
2022-12-18T07:05:42.334Z,-8.66
2022-12-18T07:08:09.104Z,-8.60
2022-12-18T07:10:47.411Z,-8.65
2022-12-18T07:13:16.882Z,-8.59
2022-12-18T07:15:44.649Z,-8.55
2022-12-18T07:18:12.117Z,-8.58
2022-12-18T07:20:40.222Z,-8.53
2022-12-18T07:23:07.013Z,-8.55
2022-12-18T07:25:37.391Z,-8.56
2022-12-18T07:28:04.649Z,-8.63
2022-12-18T07:30:31.546Z,-8.64
2022-12-18T07:32:58.643Z,-8.59
2022-12-18T07:35:25.839Z,-8.59
2022-12-18T07:37:52.686Z,-8.57
2022-12-18T07:40:19.502Z,-8.53
2022-12-18T07:42:46.386Z,-8.56
2022-12-18T07:45:13.214Z,-8.56
2022-12-18T07:47:42.458Z,-8.43
2022-12-18T07:50:09.501Z,-8.37
2022-12-18T07:52:36.318Z,-8.37
2022-12-18T07:55:03.553Z,-8.48
2022-12-18T08:00:17.425Z,-8.45
2022-12-18T08:02:44.304Z,-8.42
2022-12-18T08:05:11.281Z,-8.34
2022-12-18T08:07:38.137Z,-8.31
2022-12-18T08:10:05.153Z,-8.25
2022-12-18T08:12:33.255Z,-8.18
2022-12-18T08:15:00.094Z,-8.13
2022-12-18T08:17:26.866Z,-8.16
2022-12-18T08:19:53.737Z,-8.07
2022-12-18T08:22:20.644Z,-8.01
2022-12-18T08:24:47.812Z,-8.06
2022-12-18T08:27:29.419Z,-7.98
2022-12-18T08:29:57.593Z,-7.93
2022-12-18T08:32:25.218Z,-7.82
2022-12-18T08:34:52.106Z,-7.72
2022-12-18T08:37:18.988Z,-7.67
2022-12-18T08:39:46.241Z,-7.61
2022-12-18T08:42:31.721Z,-7.59
2022-12-18T08:44:58.504Z,-7.51
2022-12-18T08:47:26.911Z,-7.54
2022-12-18T08:49:53.778Z,-7.43
2022-12-18T08:52:20.528Z,-7.28
2022-12-18T08:54:47.328Z,-7.25
2022-12-18T08:57:14.136Z,-7.07
2022-12-18T08:59:41.054Z,-7.02
2022-12-18T09:02:12.973Z,-6.90
2022-12-18T09:04:40.987Z,-6.91
2022-12-18T09:07:07.862Z,-6.78
2022-12-18T09:09:34.648Z,-6.76
2022-12-18T09:12:01.394Z,-6.69
2022-12-18T09:14:28.201Z,-6.57
2022-12-18T09:16:55.310Z,-6.57
2022-12-18T09:19:22.202Z,-6.43
2022-12-18T09:21:49.169Z,-6.39
2022-12-18T09:24:16.241Z,-6.41
2022-12-18T09:26:46.839Z,-6.27
2022-12-18T09:29:15.625Z,-6.21
2022-12-18T09:31:43.940Z,-6.19
2022-12-18T09:34:10.730Z,-6.11
2022-12-18T09:36:37.555Z,-6.03
2022-12-18T09:39:08.093Z,-5.96
2022-12-18T09:41:51.840Z,-5.87
2022-12-18T09:44:22.079Z,-5.75
2022-12-18T09:46:56.163Z,-5.64
2022-12-18T09:49:24.696Z,-5.60
2022-12-18T09:51:53.561Z,-5.56
2022-12-18T09:54:26.779Z,-5.49
2022-12-18T09:56:54.724Z,-5.36
2022-12-18T09:59:26.747Z,-5.33
2022-12-18T10:01:54.533Z,-5.36
2022-12-18T10:04:21.868Z,-5.16
2022-12-18T10:07:24.068Z,-5.00
2022-12-18T10:09:59.287Z,-4.87
2022-12-18T10:12:26.034Z,-4.80
2022-12-18T10:15:01.734Z,-4.80
2022-12-18T10:17:34.332Z,-4.61
2022-12-18T10:20:14.428Z,-4.71
2022-12-18T10:22:56.310Z,-4.75
2022-12-18T10:25:29.829Z,-4.73
2022-12-18T10:27:58.778Z,-4.65
2022-12-18T10:30:26.891Z,-4.45
2022-12-18T10:32:53.789Z,-4.34
2022-12-18T10:35:24.971Z,-4.19
2022-12-18T10:38:03.761Z,-4.20
2022-12-18T10:40:31.046Z,-3.91
2022-12-18T10:43:04.298Z,-4.03
2022-12-18T10:45:31.095Z,-3.94
2022-12-18T10:47:59.104Z,-3.89
2022-12-18T10:50:31.856Z,-3.61
2022-12-18T10:53:16.012Z,-3.57
2022-12-18T10:55:46.568Z,-3.28
2022-12-18T10:58:26.898Z,-3.21
2022-12-18T11:01:14.103Z,-3.24
2022-12-18T11:03:41.411Z,-2.95
2022-12-18T11:06:10.467Z,-2.79
2022-12-18T11:08:38.329Z,-2.71
2022-12-18T11:11:07.929Z,-2.35
2022-12-18T11:13:34.887Z,-2.29
2022-12-18T11:16:02.069Z,-2.29
2022-12-18T11:18:33.561Z,-2.12
2022-12-18T11:21:00.594Z,-2.17
2022-12-18T11:23:28.025Z,-1.86
2022-12-18T11:25:56.667Z,-1.66
2022-12-18T11:28:37.979Z,-1.64
2022-12-18T11:31:19.256Z,-1.68
2022-12-18T11:34:27.545Z,-1.44
2022-12-18T11:36:47.333Z,-1.48
2022-12-18T11:39:20.150Z,-1.27
2022-12-18T11:42:11.787Z,-1.23
2022-12-18T11:44:51.167Z,-1.31
2022-12-18T11:47:36.664Z,-1.51
2022-12-18T11:50:11.668Z,-1.30
2022-12-18T11:52:39.716Z,-1.65
2022-12-18T11:55:12.557Z,-2.26
2022-12-18T11:57:43.541Z,-2.32
2022-12-18T12:00:16.102Z,-2.39
2022-12-18T12:03:05.681Z,-2.48
2022-12-18T12:05:51.241Z,-2.21
2022-12-18T12:08:27.219Z,-1.89
2022-12-18T12:10:59.482Z,-1.61
2022-12-18T12:13:26.271Z,-1.46
2022-12-18T12:16:32.019Z,-1.10
2022-12-18T12:19:01.748Z,-0.72
2022-12-18T12:21:40.200Z,-0.68
2022-12-18T12:24:09.744Z,-0.85
2022-12-18T12:26:46.632Z,-0.96
2022-12-18T12:29:23.088Z,-1.13
2022-12-18T12:31:56.084Z,-1.21
2022-12-18T12:34:27.607Z,-1.57
2022-12-18T12:37:26.990Z,-1.68
2022-12-18T12:39:54.734Z,-1.70
2022-12-18T12:42:43.273Z,-1.83
2022-12-18T12:45:14.914Z,-1.95
2022-12-18T12:47:43.126Z,-2.22
2022-12-18T12:50:18.797Z,-2.36
2022-12-18T12:52:50.233Z,-2.34
2022-12-18T12:55:19.769Z,-2.43
2022-12-18T12:57:56.109Z,-2.41
2022-12-18T13:00:25.154Z,-2.34
2022-12-18T13:03:07.472Z,-2.36
2022-12-18T13:05:53.104Z,-2.44
2022-12-18T13:08:27.366Z,-2.58
2022-12-18T13:11:36.799Z,-2.37
2022-12-18T13:14:03.588Z,-2.18
2022-12-18T13:16:30.437Z,-2.00
2022-12-18T13:18:59.686Z,-1.90
2022-12-18T13:21:34.192Z,-2.03
2022-12-18T13:24:21.528Z,-2.06
2022-12-18T13:26:49.492Z,-2.00
2022-12-18T13:29:36.224Z,-2.16
2022-12-18T13:32:03.557Z,-2.31
2022-12-18T13:34:32.218Z,-2.24
2022-12-18T13:37:19.700Z,-2.24
2022-12-18T13:39:47.031Z,-2.23
2022-12-18T13:42:34.254Z,-2.25
2022-12-18T13:45:01.333Z,-2.44
2022-12-18T13:47:38.999Z,-2.57
2022-12-18T13:50:22.107Z,-2.66
2022-12-18T13:52:49.500Z,-2.74
2022-12-18T13:55:18.869Z,-2.81
2022-12-18T13:57:45.728Z,-2.92
2022-12-18T14:00:20.146Z,-2.97
2022-12-18T14:02:47.383Z,-3.00
2022-12-18T14:05:27.358Z,-3.32
2022-12-18T14:07:54.990Z,-3.32
2022-12-18T14:13:10.441Z,-3.53
2022-12-18T14:15:41.208Z,-3.52
2022-12-18T14:18:30.534Z,-3.62
2022-12-18T14:21:01.114Z,-3.74
2022-12-18T14:23:32.458Z,-3.85
2022-12-18T14:26:03.785Z,-3.85
2022-12-18T14:28:32.929Z,-4.00
2022-12-18T14:30:59.915Z,-3.98
2022-12-18T14:33:28.186Z,-3.96
2022-12-18T14:35:59.824Z,-4.01
2022-12-18T14:38:32.498Z,-4.04
2022-12-18T14:41:04.468Z,-4.05
2022-12-18T14:43:35.624Z,-4.12
2022-12-18T14:46:03.780Z,-4.21
2022-12-18T14:48:33.679Z,-4.16
2022-12-18T14:51:00.617Z,-4.18
2022-12-18T14:53:33.420Z,-4.22
2022-12-18T14:56:00.966Z,-4.35
2022-12-18T14:58:28.479Z,-4.42
2022-12-18T15:00:55.940Z,-4.47
2022-12-18T15:03:23.775Z,-4.52
2022-12-18T15:05:51.938Z,-4.57
2022-12-18T15:08:30.218Z,-4.58
2022-12-18T15:10:58.101Z,-4.49
2022-12-18T15:13:25.802Z,-4.55
2022-12-18T15:15:54.252Z,-4.49
2022-12-18T15:18:23.952Z,-4.52
2022-12-18T15:20:50.828Z,-4.55
2022-12-18T15:23:22.716Z,-4.60
2022-12-18T15:26:03.355Z,-4.60
2022-12-18T15:28:33.354Z,-4.63
2022-12-18T15:31:13.513Z,-4.58
2022-12-18T15:33:43.005Z,-4.60
2022-12-18T15:36:11.533Z,-4.62
2022-12-18T15:38:38.385Z,-4.65
2022-12-18T15:41:17.847Z,-4.64
2022-12-18T15:43:51.994Z,-4.62
2022-12-18T15:46:23.262Z,-4.70
2022-12-18T15:48:51.198Z,-4.61
2022-12-18T15:51:18.325Z,-4.60
2022-12-18T15:53:45.803Z,-4.54
2022-12-18T15:56:31.664Z,-4.51
2022-12-18T15:58:58.903Z,-4.44
2022-12-18T16:01:27.241Z,-4.47
2022-12-18T16:03:55.009Z,-4.51
2022-12-18T16:06:22.662Z,-4.47
2022-12-18T16:08:49.561Z,-4.41
2022-12-18T16:11:38.738Z,-4.39
2022-12-18T16:14:06.777Z,-4.33
2022-12-18T16:16:34.305Z,-4.28
2022-12-18T16:19:01.430Z,-4.29
2022-12-18T16:21:33.917Z,-4.20
2022-12-18T16:24:01.151Z,-4.16
2022-12-18T16:26:28.350Z,-4.09
2022-12-18T16:28:56.334Z,-4.02
2022-12-18T16:31:23.563Z,-4.07
2022-12-18T16:33:53.322Z,-4.02
2022-12-18T16:36:20.570Z,-4.02
2022-12-18T16:38:47.432Z,-4.01
2022-12-18T16:41:32.311Z,-3.96
2022-12-18T16:44:04.658Z,-3.92
2022-12-18T16:46:32.249Z,-3.93
2022-12-18T16:48:59.950Z,-3.89
2022-12-18T16:51:27.725Z,-3.80
2022-12-18T16:53:55.562Z,-3.81
2022-12-18T16:56:23.342Z,-3.79
2022-12-18T16:58:55.297Z,-3.72
2022-12-18T17:01:23.247Z,-3.76
2022-12-18T17:03:57.600Z,-3.79
2022-12-18T17:06:25.934Z,-3.74
2022-12-18T17:08:57.583Z,-3.69
2022-12-18T17:11:25.794Z,-3.70
2022-12-18T17:13:54.103Z,-3.67
2022-12-18T17:16:21.428Z,-3.71
2022-12-18T17:18:48.973Z,-3.70
2022-12-18T17:21:16.457Z,-3.73
2022-12-18T17:23:44.221Z,-3.70
2022-12-18T17:26:11.863Z,-3.74
2022-12-18T17:28:39.860Z,-3.79
2022-12-18T17:31:20.962Z,-3.81
2022-12-18T17:33:48.330Z,-3.78
2022-12-18T17:36:15.842Z,-3.75
2022-12-18T17:38:44.235Z,-3.73
2022-12-18T17:41:12.120Z,-3.80
2022-12-18T17:43:46.438Z,-3.75
2022-12-18T17:46:14.488Z,-3.80
2022-12-18T17:48:42.081Z,-3.72
2022-12-18T17:51:09.795Z,-3.70
2022-12-18T17:53:39.570Z,-3.77
2022-12-18T17:56:08.493Z,-3.75
2022-12-18T17:58:38.716Z,-3.70
2022-12-18T18:01:06.644Z,-3.68
2022-12-18T18:03:34.180Z,-3.67
2022-12-18T18:06:02.347Z,-3.67
2022-12-18T18:08:29.519Z,-3.63
2022-12-18T18:11:16.355Z,-3.62
2022-12-18T18:14:01.681Z,-3.61
2022-12-18T18:16:30.075Z,-3.66
2022-12-18T18:19:00.929Z,-3.66
2022-12-18T18:21:28.360Z,-3.68
2022-12-18T18:23:55.594Z,-3.69
2022-12-18T18:26:22.590Z,-3.68
2022-12-18T18:28:54.138Z,-3.68
2022-12-18T18:31:21.687Z,-3.66
2022-12-18T18:33:48.600Z,-3.59
2022-12-18T18:36:15.609Z,-3.65
2022-12-18T18:38:48.009Z,-3.62
2022-12-18T18:41:15.996Z,-3.63
2022-12-18T18:43:43.470Z,-3.60
2022-12-18T18:46:12.344Z,-3.61
2022-12-18T18:48:42.378Z,-3.64
2022-12-18T18:51:12.255Z,-3.58
2022-12-18T18:53:43.203Z,-3.55
2022-12-18T18:56:45.446Z,-3.56
2022-12-18T18:58:59.715Z,-3.61
2022-12-18T19:01:26.691Z,-3.60
2022-12-18T19:03:53.748Z,-3.62
2022-12-18T19:06:23.442Z,-3.63
2022-12-18T19:08:50.879Z,-3.67
2022-12-18T19:11:36.731Z,-3.66
2022-12-18T19:14:05.107Z,-3.62
2022-12-18T19:16:32.495Z,-3.61
2022-12-18T19:19:02.300Z,-3.66
2022-12-18T19:21:31.354Z,-3.67
2022-12-18T19:24:01.311Z,-3.63
2022-12-18T19:26:28.941Z,-3.66
2022-12-18T19:29:03.586Z,-3.64
2022-12-18T19:31:35.702Z,-3.64
2022-12-18T19:34:03.921Z,-3.62
2022-12-18T19:36:31.202Z,-3.60
2022-12-18T19:38:59.428Z,-3.63
2022-12-18T19:41:27.571Z,-3.64
2022-12-18T19:43:57.551Z,-3.66
2022-12-18T19:46:24.704Z,-3.64
2022-12-18T19:48:52.212Z,-3.67
2022-12-18T19:51:21.100Z,-3.61
2022-12-18T19:53:49.843Z,-3.64
2022-12-18T19:56:20.402Z,-3.64
2022-12-18T19:58:47.204Z,-3.65
2022-12-18T20:01:16.753Z,-3.64
2022-12-18T20:03:46.627Z,-3.62
2022-12-18T20:06:25.187Z,-3.65
2022-12-18T20:08:52.546Z,-3.61
2022-12-18T20:11:21.716Z,-3.57
2022-12-18T20:13:48.501Z,-3.57
2022-12-18T20:16:15.699Z,-3.55
2022-12-18T20:18:42.621Z,-3.54
2022-12-18T20:21:13.833Z,-3.56
2022-12-18T20:23:41.639Z,-3.53
2022-12-18T20:26:08.976Z,-3.53
2022-12-18T20:28:35.962Z,-3.45
2022-12-18T20:31:06.506Z,-3.46
2022-12-18T20:33:33.893Z,-3.42
2022-12-18T20:36:02.449Z,-3.41
2022-12-18T20:38:30.335Z,-3.44
2022-12-18T20:40:59.389Z,-3.49
2022-12-18T20:43:26.314Z,-3.38
2022-12-18T20:45:59.996Z,-3.37
2022-12-18T20:48:27.595Z,-3.40
2022-12-18T20:50:59.054Z,-3.38
2022-12-18T20:53:28.965Z,-3.37
2022-12-18T20:55:55.799Z,-3.34
2022-12-18T20:58:22.745Z,-3.31
2022-12-18T21:00:50.179Z,-3.32
2022-12-18T21:03:17.901Z,-3.33
2022-12-18T21:05:45.031Z,-3.32
2022-12-18T21:08:12.879Z,-3.27
2022-12-18T21:10:42.500Z,-3.31
2022-12-18T21:13:10.187Z,-3.25
2022-12-18T21:15:38.188Z,-3.31
2022-12-18T21:18:05.008Z,-3.28
2022-12-18T21:20:31.851Z,-3.29
2022-12-18T21:23:03.976Z,-3.28
2022-12-18T21:25:44.214Z,-3.27
2022-12-18T21:28:12.731Z,-3.31
2022-12-18T21:30:39.934Z,-3.26
2022-12-18T21:33:06.743Z,-3.24
2022-12-18T21:35:33.840Z,-3.23
2022-12-18T21:38:01.378Z,-3.31
2022-12-18T21:40:30.591Z,-3.18
2022-12-18T21:43:17.767Z,-3.20
2022-12-18T21:45:44.786Z,-3.17
2022-12-18T21:48:12.315Z,-3.14
2022-12-18T21:50:39.207Z,-3.17
2022-12-18T21:53:05.990Z,-3.08
2022-12-18T21:55:32.854Z,-3.05
2022-12-18T21:57:59.615Z,-3.06
2022-12-18T22:00:26.438Z,-3.06
2022-12-18T22:03:17.910Z,-3.06
2022-12-18T22:05:41.173Z,-3.05
2022-12-18T22:08:08.338Z,-3.06
2022-12-18T22:10:35.151Z,-2.99
2022-12-18T22:13:02.236Z,-2.93
2022-12-18T22:15:29.068Z,-2.95
2022-12-18T22:17:59.839Z,-3.02
2022-12-18T22:20:27.336Z,-3.02
2022-12-18T22:22:54.233Z,-2.98
2022-12-18T22:25:21.004Z,-3.01
2022-12-18T22:28:07.932Z,-3.00
2022-12-18T22:30:36.130Z,-2.96
2022-12-18T22:33:05.962Z,-2.94
2022-12-18T22:35:33.222Z,-3.01
2022-12-18T22:38:00.239Z,-2.99
2022-12-18T22:40:28.135Z,-2.93
2022-12-18T22:42:56.315Z,-2.85
2022-12-18T22:45:23.559Z,-2.91
2022-12-18T22:47:51.189Z,-2.91
2022-12-18T22:50:18.278Z,-2.89
2022-12-18T22:52:45.222Z,-2.88
2022-12-18T22:55:12.076Z,-2.89
2022-12-18T22:57:47.046Z,-2.88
2022-12-18T23:00:16.311Z,-2.82
2022-12-18T23:02:45.332Z,-2.75
2022-12-18T23:05:12.324Z,-2.75
2022-12-18T23:07:39.264Z,-2.77
2022-12-18T23:10:06.602Z,-2.74
2022-12-18T23:12:33.500Z,-2.70
2022-12-18T23:15:03.141Z,-2.72
2022-12-18T23:17:30.072Z,-2.67
2022-12-18T23:19:56.812Z,-2.61
2022-12-18T23:22:23.975Z,-2.62
2022-12-18T23:24:51.041Z,-2.71
2022-12-18T23:27:18.594Z,-2.66
2022-12-18T23:29:45.403Z,-2.71
2022-12-18T23:32:14.217Z,-2.65
2022-12-18T23:34:41.171Z,-2.71
2022-12-18T23:37:10.679Z,-2.64
2022-12-18T23:39:37.530Z,-2.71
2022-12-18T23:42:05.318Z,-2.66
2022-12-18T23:44:32.295Z,-2.59
2022-12-18T23:46:59.564Z,-2.63
2022-12-18T23:49:26.674Z,-2.63
2022-12-18T23:51:54.163Z,-2.63
2022-12-18T23:54:31.721Z,-2.59
2022-12-18T23:57:00.474Z,-2.61
2022-12-18T23:59:27.966Z,-2.64
